Metcalfe, Mississippi
Current Conditions -  °F | °C
As of 10:53 PM on Wednesday 17 Dec 2014 (Local Time) from KGLH Reporting Station
Overcast Overcast  
Wind Chill: 38°   Ceiling: 8000
Heat Index: 44°   Visibility: 8mi
Dew Point: 38°   Wind: 12mph
Humidity: 79%   Direction: 350°N
Pressure: 30.26"   Gusts: NA
Location:  33.45°N, 91.01°W
Report Text: KGLH 180453Z AUTO 35010KT 8SM OVC080 07/03 A3026 RMK AO2 SLP255 T00670033
Loading
Personal Weather Stations






























Interactive Weather Map New forecast layout! Learn more

10-Day Weather Forecast

Advertisements
Track Severe Weather on mobile